createdAt,value
2018-09-26T00:03:06.257Z,8.77
2018-09-26T00:08:01.067Z,8.78
2018-09-26T00:12:55.878Z,8.81
2018-09-26T00:17:50.734Z,8.79
2018-09-26T00:22:45.541Z,8.65
2018-09-26T00:27:40.345Z,8.55
2018-09-26T00:32:35.141Z,8.70
2018-09-26T00:37:29.887Z,8.72
2018-09-26T00:42:24.699Z,8.37
2018-09-26T00:47:19.461Z,8.17
2018-09-26T00:52:14.328Z,8.01
2018-09-26T00:57:09.153Z,7.94
2018-09-26T01:02:03.923Z,7.76
2018-09-26T01:06:58.733Z,7.74
2018-09-26T01:11:53.544Z,7.75
2018-09-26T01:16:48.368Z,7.75
2018-09-26T01:21:43.172Z,7.49
2018-09-26T01:26:37.930Z,7.51
2018-09-26T01:31:32.723Z,7.44
2018-09-26T01:36:27.538Z,7.63
2018-09-26T01:41:22.329Z,7.44
2018-09-26T01:46:17.089Z,7.30
2018-09-26T01:51:11.861Z,7.31
2018-09-26T01:56:06.718Z,7.08
2018-09-26T02:01:01.496Z,7.07
2018-09-26T02:05:56.290Z,7.03
2018-09-26T02:10:51.077Z,6.84
2018-09-26T02:15:45.904Z,6.81
2018-09-26T02:20:40.681Z,7.01
2018-09-26T02:25:35.421Z,6.90
2018-09-26T02:30:30.220Z,6.75
2018-09-26T02:35:25.019Z,6.77
2018-09-26T02:40:19.827Z,6.76
2018-09-26T02:45:14.602Z,6.76
2018-09-26T02:50:09.653Z,6.62
2018-09-26T02:55:04.649Z,6.53
2018-09-26T02:59:59.444Z,6.51
2018-09-26T03:04:54.216Z,6.49
2018-09-26T03:09:49.034Z,6.37
2018-09-26T03:14:43.849Z,6.24
2018-09-26T03:19:38.601Z,6.16
2018-09-26T03:24:33.380Z,6.27
2018-09-26T03:29:28.206Z,6.19
2018-09-26T03:34:22.935Z,6.21
2018-09-26T03:39:17.709Z,6.21
2018-09-26T03:44:12.502Z,6.08
2018-09-26T03:49:07.288Z,6.14
2018-09-26T03:54:02.102Z,6.19
2018-09-26T03:58:56.966Z,6.18
2018-09-26T04:03:51.721Z,6.01
2018-09-26T04:08:46.554Z,5.95
2018-09-26T04:13:41.350Z,5.93
2018-09-26T04:18:36.145Z,5.87
2018-09-26T04:23:30.911Z,5.83
2018-09-26T04:28:25.724Z,5.77
2018-09-26T04:33:20.657Z,5.81
2018-09-26T04:38:15.329Z,5.65
2018-09-26T04:43:10.122Z,5.59
2018-09-26T04:48:04.937Z,5.71
2018-09-26T04:52:59.745Z,5.63
2018-09-26T04:57:54.576Z,5.61
2018-09-26T05:02:49.414Z,5.35
2018-09-26T05:07:44.261Z,5.40
2018-09-26T05:12:39.044Z,5.43
2018-09-26T05:17:34.117Z,5.49
2018-09-26T05:22:28.894Z,5.30
2018-09-26T05:27:23.721Z,5.46
2018-09-26T05:32:18.489Z,5.48
2018-09-26T05:37:13.574Z,5.46
2018-09-26T05:42:08.425Z,5.36
2018-09-26T05:47:03.239Z,5.35
2018-09-26T05:51:58.021Z,5.43
2018-09-26T05:56:52.809Z,5.39
2018-09-26T06:01:47.577Z,5.49
2018-09-26T06:06:42.457Z,5.76
2018-09-26T06:11:37.275Z,6.01
2018-09-26T06:16:32.110Z,5.98
2018-09-26T06:21:26.929Z,5.96
2018-09-26T06:26:21.714Z,6.11
2018-09-26T06:31:16.513Z,6.33
2018-09-26T06:36:11.287Z,6.44
2018-09-26T06:41:06.187Z,6.60
2018-09-26T06:46:00.967Z,6.73
2018-09-26T06:50:55.716Z,7.01
2018-09-26T06:55:50.490Z,7.19
2018-09-26T07:00:45.427Z,7.29
2018-09-26T07:05:40.241Z,7.41
2018-09-26T07:10:35.136Z,7.52
2018-09-26T07:15:29.897Z,7.70
2018-09-26T07:20:24.678Z,8.06
2018-09-26T07:25:19.942Z,8.36
2018-09-26T07:30:14.757Z,8.66
2018-09-26T07:35:09.618Z,9.02
2018-09-26T07:40:04.581Z,9.29
2018-09-26T07:44:59.415Z,9.96
2018-09-26T07:49:54.178Z,10.21
2018-09-26T07:54:48.956Z,10.81
2018-09-26T07:59:43.745Z,11.11
2018-09-26T08:04:38.530Z,11.55
2018-09-26T08:09:33.355Z,11.75
2018-09-26T08:14:28.152Z,11.74
2018-09-26T08:19:22.964Z,11.98
2018-09-26T08:24:17.785Z,11.74
2018-09-26T08:29:12.560Z,11.63
2018-09-26T08:34:07.503Z,11.74
2018-09-26T08:39:02.396Z,12.08
2018-09-26T08:43:57.243Z,12.89
2018-09-26T08:48:51.967Z,13.01
2018-09-26T08:53:47.101Z,12.85
2018-09-26T08:58:41.835Z,13.60
2018-09-26T09:03:36.627Z,13.57
2018-09-26T09:08:31.447Z,13.72
2018-09-26T09:13:26.230Z,14.00
2018-09-26T09:18:21.036Z,14.06
2018-09-26T09:23:15.797Z,13.93
2018-09-26T09:28:10.578Z,13.86
2018-09-26T09:33:05.393Z,14.14
2018-09-26T09:38:00.220Z,14.22
2018-09-26T09:42:55.014Z,14.13
2018-09-26T09:47:49.789Z,14.52
2018-09-26T09:52:44.605Z,14.57
2018-09-26T09:57:39.442Z,14.51
2018-09-26T10:02:34.406Z,14.18
2018-09-26T10:07:29.146Z,14.51
2018-09-26T10:12:24.056Z,14.70
2018-09-26T10:17:18.797Z,14.58
2018-09-26T10:22:13.527Z,14.79
2018-09-26T10:27:08.286Z,14.75
2018-09-26T10:32:02.989Z,14.84
2018-09-26T10:36:57.726Z,14.85
2018-09-26T10:41:52.434Z,15.05
2018-09-26T10:46:47.202Z,14.91
2018-09-26T10:51:42.450Z,14.72
2018-09-26T10:56:37.315Z,14.68
2018-09-26T11:01:31.988Z,14.93
2018-09-26T11:06:26.829Z,15.07
2018-09-26T11:11:21.538Z,14.99
2018-09-26T11:16:16.310Z,14.77
2018-09-26T11:21:11.041Z,14.69
2018-09-26T11:26:05.956Z,14.48
2018-09-26T11:31:00.696Z,14.64
2018-09-26T11:35:55.453Z,14.77
2018-09-26T11:40:50.224Z,14.82
2018-09-26T11:45:44.948Z,15.12
2018-09-26T11:50:39.729Z,15.28
2018-09-26T11:55:34.478Z,15.17
2018-09-26T12:00:29.230Z,15.25
2018-09-26T12:05:24.035Z,15.38
2018-09-26T12:10:18.802Z,15.19
2018-09-26T12:15:13.509Z,15.19
2018-09-26T12:20:08.371Z,14.98
2018-09-26T12:25:03.125Z,15.05
2018-09-26T12:29:57.836Z,14.86
2018-09-26T12:34:52.618Z,14.91
2018-09-26T12:39:47.300Z,14.90
2018-09-26T12:44:42.030Z,14.97
2018-09-26T12:49:36.751Z,14.84
2018-09-26T12:54:31.489Z,14.85
2018-09-26T12:59:26.209Z,14.74
2018-09-26T13:04:20.914Z,14.80
2018-09-26T13:09:15.692Z,14.82
2018-09-26T13:14:10.484Z,14.77
2018-09-26T13:19:05.292Z,14.81
2018-09-26T13:24:00.029Z,14.80
2018-09-26T13:28:54.738Z,14.98
2018-09-26T13:33:49.486Z,15.11
2018-09-26T13:38:44.269Z,15.13
2018-09-26T13:43:39.112Z,15.25
2018-09-26T13:48:33.866Z,15.31
2018-09-26T13:53:28.625Z,15.20
2018-09-26T13:58:23.412Z,15.35
2018-09-26T14:03:18.075Z,15.35
2018-09-26T14:08:12.870Z,15.28
2018-09-26T14:13:07.678Z,15.35
2018-09-26T14:18:02.406Z,15.46
2018-09-26T14:22:57.232Z,15.46
2018-09-26T14:27:51.943Z,15.62
2018-09-26T14:32:46.734Z,15.61
2018-09-26T14:37:41.491Z,15.70
2018-09-26T14:42:36.230Z,15.66
2018-09-26T14:47:30.993Z,15.67
2018-09-26T14:52:25.804Z,15.63
2018-09-26T14:57:20.546Z,15.56
2018-09-26T15:02:15.443Z,15.51
2018-09-26T15:07:10.165Z,15.56
2018-09-26T15:12:05.012Z,15.65
2018-09-26T15:16:59.819Z,15.73
2018-09-26T15:21:54.519Z,15.67
2018-09-26T15:26:49.400Z,15.67
2018-09-26T15:31:44.198Z,15.74
2018-09-26T15:36:39.335Z,15.80
2018-09-26T15:41:34.204Z,15.87
2018-09-26T15:46:28.988Z,15.85
2018-09-26T15:51:23.773Z,15.83
2018-09-26T15:56:18.586Z,15.73
2018-09-26T16:01:13.423Z,15.71
2018-09-26T16:06:08.391Z,15.71
2018-09-26T16:11:03.478Z,15.65
2018-09-26T16:15:58.277Z,15.53
2018-09-26T16:20:53.785Z,15.43
2018-09-26T16:25:48.542Z,15.33
2018-09-26T16:30:43.310Z,15.19
2018-09-26T16:35:38.049Z,15.16
2018-09-26T16:40:32.873Z,15.15
2018-09-26T16:45:28.749Z,14.99
2018-09-26T16:50:23.540Z,14.88
2018-09-26T16:55:18.297Z,14.76
2018-09-26T17:00:13.905Z,14.55
2018-09-26T17:05:08.775Z,14.23
2018-09-26T17:10:03.912Z,14.06
2018-09-26T17:14:59.306Z,13.94
2018-09-26T17:19:54.200Z,13.91
2018-09-26T17:24:49.124Z,13.79
2018-09-26T17:29:43.857Z,13.73
2018-09-26T17:34:38.669Z,13.67
2018-09-26T17:39:33.432Z,13.60
2018-09-26T17:44:28.234Z,13.54
2018-09-26T17:49:23.042Z,13.46
2018-09-26T17:54:17.762Z,13.37
2018-09-26T17:59:12.537Z,13.27
2018-09-26T18:04:07.371Z,13.21
2018-09-26T18:09:02.213Z,13.11
2018-09-26T18:13:56.960Z,13.10
2018-09-26T18:18:51.744Z,12.96
2018-09-26T18:23:46.453Z,12.64
2018-09-26T18:28:41.289Z,12.58
2018-09-26T18:33:36.228Z,12.61
2018-09-26T18:38:30.918Z,12.69
2018-09-26T18:43:25.777Z,12.55
2018-09-26T18:48:21.406Z,12.56
2018-09-26T18:53:17.123Z,12.60
2018-09-26T18:58:11.943Z,12.54
2018-09-26T19:03:06.815Z,12.43
2018-09-26T19:08:01.626Z,12.35
2018-09-26T19:12:56.476Z,12.27
2018-09-26T19:17:51.224Z,12.26
2018-09-26T19:22:46.021Z,12.10
2018-09-26T19:27:50.681Z,12.13
2018-09-26T19:32:54.863Z,11.95
2018-09-26T19:37:57.387Z,11.99
2018-09-26T19:42:57.919Z,11.91
2018-09-26T19:47:57.650Z,11.83
2018-09-26T19:52:53.294Z,11.68
2018-09-26T19:57:50.130Z,11.87
2018-09-26T20:02:46.475Z,11.84
2018-09-26T20:07:50.945Z,11.74
2018-09-26T20:15:24.371Z,11.58
2018-09-26T20:20:20.692Z,11.37
2018-09-26T20:30:24.513Z,11.19
2018-09-26T20:35:19.263Z,11.23
2018-09-26T20:40:14.039Z,11.39
2018-09-26T20:45:09.197Z,11.37
2018-09-26T20:50:05.129Z,11.30
2018-09-26T20:54:59.878Z,11.05
2018-09-26T20:59:54.635Z,10.85
2018-09-26T21:04:49.361Z,10.84
2018-09-26T21:09:44.254Z,10.77
2018-09-26T21:14:39.014Z,10.73
2018-09-26T21:19:33.762Z,10.96
2018-09-26T21:24:29.247Z,10.73
2018-09-26T21:29:24.036Z,10.71
2018-09-26T21:34:20.019Z,10.66
2018-09-26T21:39:14.795Z,10.44
2018-09-26T21:44:09.621Z,10.35
2018-09-26T21:49:04.411Z,10.41
2018-09-26T21:53:59.141Z,10.55
2018-09-26T21:58:53.919Z,10.58
2018-09-26T22:03:48.867Z,10.47
2018-09-26T22:08:43.836Z,10.39
2018-09-26T22:13:38.752Z,10.37
2018-09-26T22:18:33.644Z,10.18
2018-09-26T22:23:28.652Z,9.95
2018-09-26T22:28:23.447Z,9.98
2018-09-26T22:33:18.430Z,9.92
2018-09-26T22:38:13.420Z,10.01
2018-09-26T22:43:08.426Z,9.93
2018-09-26T22:48:03.421Z,10.00
2018-09-26T22:52:58.388Z,10.21
2018-09-26T22:57:53.418Z,10.02
2018-09-26T23:02:48.413Z,9.88
2018-09-26T23:07:43.345Z,9.98
2018-09-26T23:12:38.285Z,9.87
2018-09-26T23:17:33.218Z,9.69
2018-09-26T23:22:28.607Z,9.74
2018-09-26T23:27:23.558Z,9.63
2018-09-26T23:32:18.465Z,9.79
2018-09-26T23:37:13.375Z,9.80
2018-09-26T23:42:08.643Z,9.67
2018-09-26T23:47:03.567Z,9.56
2018-09-26T23:51:58.474Z,9.54
2018-09-26T23:56:53.387Z,9.35
